createdAt,value
2019-03-18T00:00:58.899Z,49.89
2019-03-18T00:02:01.093Z,49.88
2019-03-18T00:03:03.342Z,49.96
2019-03-18T00:04:05.662Z,49.84
2019-03-18T00:05:07.871Z,49.89
2019-03-18T00:06:10.610Z,49.86
2019-03-18T00:07:12.819Z,49.86
2019-03-18T00:08:15.031Z,49.91
2019-03-18T00:09:17.642Z,49.89
2019-03-18T00:10:19.847Z,49.97
2019-03-18T00:11:22.283Z,49.88
2019-03-18T00:12:24.528Z,49.87
2019-03-18T00:13:26.691Z,49.86
2019-03-18T00:14:28.907Z,49.91
2019-03-18T00:15:31.161Z,49.96
2019-03-18T00:16:33.518Z,49.93
2019-03-18T00:17:35.777Z,49.84
2019-03-18T00:18:38.001Z,49.85
2019-03-18T00:19:42.854Z,49.78
2019-03-18T00:20:44.072Z,49.82
2019-03-18T00:21:46.429Z,49.80
2019-03-18T00:22:51.861Z,49.78
2019-03-18T00:23:54.108Z,49.87
2019-03-18T00:24:56.316Z,49.83
2019-03-18T00:25:58.695Z,49.76
2019-03-18T00:27:01.016Z,49.77
2019-03-18T00:28:03.233Z,49.80
2019-03-18T00:29:05.609Z,49.78
2019-03-18T00:30:07.859Z,49.76
2019-03-18T00:31:10.106Z,49.72
2019-03-18T00:32:12.380Z,49.84
2019-03-18T00:33:14.647Z,49.74
2019-03-18T00:34:19.626Z,49.89
2019-03-18T00:35:21.850Z,49.69
2019-03-18T00:36:24.067Z,49.78
2019-03-18T00:37:26.330Z,49.72
2019-03-18T00:38:28.538Z,49.83
2019-03-18T00:39:30.741Z,49.77
2019-03-18T00:40:32.980Z,49.74
2019-03-18T00:41:35.197Z,49.78
2019-03-18T00:42:37.408Z,49.69
2019-03-18T00:43:39.634Z,49.69
2019-03-18T00:44:41.842Z,49.76
2019-03-18T00:45:44.065Z,49.74
2019-03-18T00:46:46.748Z,49.67
2019-03-18T00:47:49.030Z,49.68
2019-03-18T00:48:51.388Z,49.74
2019-03-18T00:49:56.651Z,49.71
2019-03-18T00:50:58.885Z,49.78
2019-03-18T00:52:01.093Z,49.80
2019-03-18T00:53:03.251Z,49.75
2019-03-18T00:54:05.468Z,49.73
2019-03-18T00:55:07.696Z,49.69
2019-03-18T00:56:09.914Z,49.76
2019-03-18T00:57:12.150Z,49.73
2019-03-18T00:58:14.385Z,49.71
2019-03-18T00:59:16.716Z,49.76
2019-03-18T01:00:19.055Z,49.75
2019-03-18T01:01:21.310Z,49.71
2019-03-18T01:02:26.342Z,49.69
2019-03-18T01:03:28.582Z,49.72
2019-03-18T01:04:30.823Z,49.72
2019-03-18T01:05:35.382Z,49.76
2019-03-18T01:06:37.722Z,49.69
2019-03-18T01:07:39.944Z,49.74
2019-03-18T01:08:42.229Z,49.75
2019-03-18T01:09:44.446Z,49.72
2019-03-18T01:10:46.692Z,49.75
2019-03-18T01:11:48.906Z,49.67
2019-03-18T01:12:51.124Z,49.64
2019-03-18T01:13:53.612Z,49.65
2019-03-18T01:14:55.818Z,49.71
2019-03-18T01:15:58.167Z,49.71
2019-03-18T01:17:00.351Z,49.71
2019-03-18T01:18:02.710Z,49.74
2019-03-18T01:19:05.020Z,49.74
2019-03-18T01:20:07.168Z,49.65
2019-03-18T01:22:50.854Z,49.69
2019-03-18T01:23:53.015Z,49.64
2019-03-18T01:24:55.247Z,49.67
2019-03-18T01:25:57.478Z,49.72
2019-03-18T01:26:59.664Z,49.61
2019-03-18T01:28:01.875Z,49.66
2019-03-18T01:29:04.103Z,49.68
2019-03-18T01:30:06.316Z,49.67
2019-03-18T01:31:11.006Z,49.67
2019-03-18T01:32:13.244Z,49.73
2019-03-18T01:33:15.440Z,49.63
2019-03-18T01:34:17.637Z,49.58
2019-03-18T01:35:21.174Z,49.67
2019-03-18T01:36:23.396Z,49.68
2019-03-18T01:37:25.572Z,49.64
2019-03-18T01:38:27.785Z,49.60
2019-03-18T01:39:29.976Z,49.67
2019-03-18T01:40:32.202Z,49.60
2019-03-18T01:41:34.390Z,49.63
2019-03-18T01:42:36.588Z,49.67
2019-03-18T01:43:38.809Z,49.62
2019-03-18T01:44:41.014Z,49.65
2019-03-18T01:45:43.260Z,49.60
2019-03-18T01:46:45.471Z,49.71
2019-03-18T01:47:47.674Z,49.69
2019-03-18T01:48:49.882Z,49.63
2019-03-18T01:49:52.102Z,49.74
2019-03-18T01:50:54.326Z,49.63
2019-03-18T01:51:56.566Z,49.64
2019-03-18T01:52:58.756Z,49.62
2019-03-18T01:54:00.968Z,49.66
2019-03-18T01:55:03.158Z,49.61
2019-03-18T01:56:05.316Z,49.61
2019-03-18T01:57:07.524Z,49.60
2019-03-18T01:58:09.724Z,49.58
2019-03-18T01:59:11.926Z,49.59
2019-03-18T02:00:14.126Z,49.56
2019-03-18T02:01:16.349Z,49.58
2019-03-18T02:02:18.552Z,49.55
2019-03-18T02:03:20.749Z,49.64
2019-03-18T02:04:22.955Z,49.59
2019-03-18T02:05:25.150Z,49.58
2019-03-18T02:06:27.371Z,49.56
2019-03-18T02:07:29.571Z,49.56
2019-03-18T02:08:32.012Z,49.58
2019-03-18T02:09:34.187Z,49.56
2019-03-18T02:10:36.382Z,49.56
2019-03-18T02:11:40.129Z,49.57
2019-03-18T02:12:42.347Z,49.52
2019-03-18T02:13:44.555Z,49.54
2019-03-18T02:14:46.747Z,49.48
2019-03-18T02:15:53.735Z,49.50
2019-03-18T02:16:54.405Z,49.47
2019-03-18T02:17:56.601Z,49.50
2019-03-18T02:18:58.800Z,49.53
2019-03-18T02:20:00.989Z,49.56
2019-03-18T02:21:03.191Z,49.44
2019-03-18T02:22:05.512Z,49.46
2019-03-18T02:23:07.838Z,49.46
2019-03-18T02:24:10.223Z,49.44
2019-03-18T02:25:12.430Z,49.43
2019-03-18T02:26:14.633Z,49.39
2019-03-18T02:27:16.832Z,49.46
2019-03-18T02:28:21.836Z,49.46
2019-03-18T02:29:26.339Z,49.44
2019-03-18T02:30:28.548Z,49.47
2019-03-18T02:31:30.746Z,49.41
2019-03-18T02:32:32.988Z,49.42
2019-03-18T02:33:35.198Z,49.40
2019-03-18T02:34:37.405Z,49.41
2019-03-18T02:35:39.818Z,49.51
2019-03-18T02:36:42.011Z,49.39
2019-03-18T02:37:44.356Z,49.48
2019-03-18T02:38:46.552Z,49.40
2019-03-18T02:39:48.752Z,49.41
2019-03-18T02:40:50.952Z,49.50
2019-03-18T02:41:53.149Z,49.51
2019-03-18T02:42:56.764Z,49.53
2019-03-18T02:43:58.961Z,49.42
2019-03-18T02:45:01.169Z,49.45
2019-03-18T02:46:09.984Z,49.47
2019-03-18T02:47:07.227Z,49.42
2019-03-18T02:48:09.457Z,49.35
2019-03-18T02:49:11.664Z,49.46
2019-03-18T02:50:13.854Z,49.34
2019-03-18T02:51:18.585Z,49.36
2019-03-18T02:52:20.852Z,49.42
2019-03-18T02:53:23.088Z,49.42
2019-03-18T02:54:25.308Z,49.44
2019-03-18T02:55:29.279Z,49.36
2019-03-18T02:56:31.492Z,49.39
2019-03-18T02:57:33.699Z,49.53
2019-03-18T02:58:35.945Z,49.47
2019-03-18T02:59:38.128Z,49.36
2019-03-18T03:00:40.346Z,49.45
2019-03-18T03:01:42.543Z,49.35
2019-03-18T03:02:47.804Z,49.41
2019-03-18T03:03:50.141Z,49.39
2019-03-18T03:04:52.369Z,49.36
2019-03-18T03:05:54.617Z,49.43
2019-03-18T03:06:56.854Z,49.34
2019-03-18T03:07:59.058Z,49.41
2019-03-18T03:09:01.563Z,49.44
2019-03-18T03:10:03.777Z,49.31
2019-03-18T03:11:05.977Z,49.37
2019-03-18T03:12:08.177Z,49.40
2019-03-18T03:13:10.385Z,49.41
2019-03-18T03:14:12.606Z,49.38
2019-03-18T03:15:16.512Z,49.33
2019-03-18T03:16:26.555Z,49.36
2019-03-18T03:17:22.589Z,49.34
2019-03-18T03:18:24.773Z,49.38
2019-03-18T03:19:27.030Z,49.31
2019-03-18T03:20:29.244Z,49.28
2019-03-18T03:21:31.439Z,49.29
2019-03-18T03:22:33.633Z,49.31
2019-03-18T03:23:35.837Z,49.35
2019-03-18T03:24:38.060Z,49.39
2019-03-18T03:25:40.254Z,49.35
2019-03-18T03:26:42.460Z,49.33
2019-03-18T03:27:44.657Z,49.30
2019-03-18T03:28:46.868Z,49.38
2019-03-18T03:29:49.090Z,49.38
2019-03-18T03:30:51.308Z,49.39
2019-03-18T03:31:53.503Z,49.38
2019-03-18T03:32:55.721Z,49.36
2019-03-18T03:33:57.891Z,49.40
2019-03-18T03:35:00.999Z,49.34
2019-03-18T03:36:03.494Z,49.37
2019-03-18T03:37:05.690Z,49.45
2019-03-18T03:38:09.086Z,49.43
2019-03-18T03:39:11.209Z,49.37
2019-03-18T03:40:13.441Z,49.38
2019-03-18T03:41:17.959Z,49.38
2019-03-18T03:42:21.872Z,49.31
2019-03-18T03:43:24.067Z,49.31
2019-03-18T03:44:26.290Z,49.36
2019-03-18T03:45:28.512Z,49.31
2019-03-18T03:46:42.187Z,49.34
2019-03-18T03:47:34.559Z,49.40
2019-03-18T03:48:36.911Z,49.36
2019-03-18T03:49:39.215Z,49.33
2019-03-18T03:50:41.394Z,49.40
2019-03-18T03:51:43.626Z,49.36
2019-03-18T03:52:45.827Z,49.36
2019-03-18T03:53:48.044Z,49.38
2019-03-18T03:54:50.220Z,49.37
2019-03-18T03:55:52.444Z,49.32
2019-03-18T03:56:54.681Z,49.34
2019-03-18T03:57:56.889Z,49.33
2019-03-18T03:58:59.097Z,49.36
2019-03-18T04:00:01.278Z,49.37
2019-03-18T04:01:03.519Z,49.35
2019-03-18T04:02:05.821Z,49.31
2019-03-18T04:03:08.024Z,49.40
2019-03-18T04:04:10.229Z,49.34
2019-03-18T04:05:12.424Z,49.34
2019-03-18T04:06:14.666Z,49.37
2019-03-18T04:07:16.856Z,49.36
2019-03-18T04:08:19.069Z,49.36
2019-03-18T04:09:21.408Z,49.34
2019-03-18T04:10:23.631Z,49.36
2019-03-18T04:11:25.855Z,49.37
2019-03-18T04:12:28.055Z,49.38
2019-03-18T04:13:30.255Z,49.34
2019-03-18T04:14:32.446Z,49.37
2019-03-18T04:15:34.671Z,49.37
2019-03-18T04:16:36.889Z,49.38
2019-03-18T04:17:39.109Z,49.37
2019-03-18T04:18:41.278Z,49.33
2019-03-18T04:19:43.495Z,49.31
2019-03-18T04:20:45.690Z,49.36
2019-03-18T04:21:50.498Z,49.41
2019-03-18T04:22:51.879Z,49.37
2019-03-18T04:23:54.077Z,49.39
2019-03-18T04:24:56.261Z,49.37
2019-03-18T04:25:58.457Z,49.34
2019-03-18T04:27:00.716Z,49.30
2019-03-18T04:28:02.885Z,49.37
2019-03-18T04:29:05.288Z,49.35
2019-03-18T04:30:09.240Z,49.31
2019-03-18T04:31:11.442Z,49.34
2019-03-18T04:32:13.595Z,49.28
2019-03-18T04:33:15.811Z,49.37
2019-03-18T04:34:18.003Z,49.40
2019-03-18T04:35:20.196Z,49.30
2019-03-18T04:36:22.404Z,49.31
2019-03-18T04:37:24.641Z,49.28
2019-03-18T04:38:26.838Z,49.34
2019-03-18T04:39:29.039Z,49.35
2019-03-18T04:40:31.248Z,49.35
2019-03-18T04:41:33.440Z,49.31
2019-03-18T04:42:35.758Z,49.36
2019-03-18T04:43:37.947Z,49.31
2019-03-18T04:44:40.142Z,49.29
2019-03-18T04:45:42.310Z,49.34
2019-03-18T04:46:44.486Z,49.31
2019-03-18T04:47:46.715Z,49.30
2019-03-18T04:48:48.910Z,49.32
2019-03-18T04:49:51.116Z,49.27
2019-03-18T04:50:53.320Z,49.35
2019-03-18T04:51:55.513Z,49.24
2019-03-18T04:52:57.756Z,49.28
2019-03-18T04:53:59.959Z,49.23
2019-03-18T04:55:02.160Z,49.28
2019-03-18T04:56:04.356Z,49.28
2019-03-18T04:57:06.678Z,49.26
2019-03-18T04:58:08.859Z,49.27
2019-03-18T04:59:11.058Z,49.27
2019-03-18T05:00:13.274Z,49.24
2019-03-18T05:01:15.464Z,49.29
2019-03-18T05:02:17.670Z,49.31
2019-03-18T05:03:19.890Z,49.27
2019-03-18T05:04:22.118Z,49.21
2019-03-18T05:05:24.293Z,49.18
2019-03-18T05:06:26.492Z,49.22
2019-03-18T05:07:28.680Z,49.20
2019-03-18T05:08:31.117Z,49.21
2019-03-18T05:09:33.319Z,49.19
2019-03-18T05:10:35.530Z,49.14
2019-03-18T05:11:37.739Z,49.21
2019-03-18T05:12:39.981Z,49.14
2019-03-18T05:13:42.252Z,49.22
2019-03-18T05:14:44.478Z,49.22
2019-03-18T05:15:47.741Z,49.23
2019-03-18T05:16:49.893Z,49.15
2019-03-18T05:17:52.088Z,49.17
2019-03-18T05:18:54.327Z,49.13
2019-03-18T05:19:56.653Z,49.13
2019-03-18T05:20:58.864Z,49.13
2019-03-18T05:22:01.076Z,49.12
2019-03-18T05:23:03.260Z,49.10
2019-03-18T05:24:05.477Z,49.21
2019-03-18T05:25:07.697Z,49.10
2019-03-18T05:26:09.887Z,49.20
2019-03-18T05:27:12.095Z,49.15
2019-03-18T05:28:14.291Z,49.14
2019-03-18T05:29:16.505Z,49.09
2019-03-18T05:30:18.703Z,49.12
2019-03-18T05:31:20.899Z,49.13
2019-03-18T05:32:23.097Z,49.08
2019-03-18T05:33:25.287Z,49.10
2019-03-18T05:34:27.523Z,49.14
2019-03-18T05:35:29.742Z,49.14
2019-03-18T05:36:33.707Z,49.12
2019-03-18T05:37:35.932Z,49.11
2019-03-18T05:38:38.136Z,49.15
2019-03-18T05:39:40.363Z,49.14
2019-03-18T05:40:42.586Z,49.09
2019-03-18T05:41:44.791Z,49.02
2019-03-18T05:42:46.998Z,49.06
2019-03-18T05:43:49.197Z,49.06
2019-03-18T05:44:51.433Z,49.12
2019-03-18T05:45:53.716Z,49.12
2019-03-18T05:46:56.031Z,49.10
2019-03-18T05:47:58.233Z,49.07
2019-03-18T05:49:00.441Z,49.09
2019-03-18T05:50:02.655Z,49.11
2019-03-18T05:51:04.871Z,49.15
2019-03-18T05:52:07.076Z,49.05
2019-03-18T05:53:09.297Z,49.13
2019-03-18T05:54:11.500Z,49.09
2019-03-18T05:55:13.747Z,49.05
2019-03-18T05:56:15.933Z,49.09
2019-03-18T05:57:18.136Z,49.09
2019-03-18T05:58:20.324Z,49.04
2019-03-18T05:59:22.529Z,49.09
2019-03-18T06:00:24.758Z,49.07
2019-03-18T06:01:26.956Z,49.12
2019-03-18T06:02:29.164Z,49.06
2019-03-18T06:03:34.119Z,49.09
2019-03-18T06:04:36.322Z,49.05
2019-03-18T06:05:38.557Z,49.04
2019-03-18T06:06:40.773Z,49.03
2019-03-18T06:07:42.979Z,49.02
2019-03-18T06:08:45.193Z,49.01
2019-03-18T06:09:47.397Z,49.01
2019-03-18T06:10:49.625Z,49.05
2019-03-18T06:11:51.892Z,49.07
2019-03-18T06:12:54.095Z,49.04
2019-03-18T06:13:57.595Z,49.02
2019-03-18T06:15:00.005Z,48.98
2019-03-18T06:16:02.249Z,48.99
2019-03-18T06:17:04.523Z,49.00
2019-03-18T06:18:06.728Z,49.01
2019-03-18T06:19:09.068Z,48.99
2019-03-18T06:20:11.278Z,49.07
2019-03-18T06:21:13.543Z,49.04
2019-03-18T06:22:15.748Z,48.99
2019-03-18T06:23:17.955Z,48.99
2019-03-18T06:24:20.159Z,49.01
2019-03-18T06:25:22.369Z,48.98
2019-03-18T06:26:24.599Z,48.99
2019-03-18T06:27:26.926Z,48.95
2019-03-18T06:28:29.105Z,48.96
2019-03-18T06:29:31.330Z,48.98
2019-03-18T06:30:33.557Z,48.95
2019-03-18T06:31:35.751Z,48.90
2019-03-18T06:32:37.985Z,48.93
2019-03-18T06:33:40.153Z,48.95
2019-03-18T06:34:42.423Z,48.94
2019-03-18T06:35:44.638Z,48.92
2019-03-18T06:36:46.868Z,48.94
2019-03-18T06:37:49.064Z,48.95
2019-03-18T06:38:51.262Z,48.95
2019-03-18T06:39:53.458Z,48.93
2019-03-18T06:40:55.587Z,48.95
2019-03-18T06:41:57.842Z,48.93
2019-03-18T06:43:00.052Z,48.99
2019-03-18T06:44:02.260Z,48.98
2019-03-18T06:45:04.465Z,48.99
2019-03-18T06:46:06.675Z,48.99
2019-03-18T06:47:08.913Z,49.00
2019-03-18T06:48:11.194Z,48.95
2019-03-18T06:49:13.316Z,48.99
2019-03-18T06:50:15.530Z,48.98
2019-03-18T06:51:17.734Z,49.01
2019-03-18T06:52:19.967Z,48.97
2019-03-18T06:53:22.166Z,48.92
2019-03-18T06:54:24.366Z,48.96
2019-03-18T06:55:26.570Z,48.95
2019-03-18T06:56:28.782Z,49.00
2019-03-18T06:57:30.938Z,49.02
2019-03-18T06:58:33.142Z,49.03
2019-03-18T06:59:35.346Z,49.05
2019-03-18T07:00:37.563Z,49.07
2019-03-18T07:01:39.758Z,49.07
2019-03-18T07:02:41.990Z,49.07
2019-03-18T07:03:44.244Z,49.08
2019-03-18T07:04:46.378Z,49.09
2019-03-18T07:05:48.575Z,49.12
2019-03-18T07:06:50.770Z,49.12
2019-03-18T07:07:54.813Z,49.08
2019-03-18T07:08:57.028Z,49.12
2019-03-18T07:09:59.234Z,49.08
2019-03-18T07:11:01.438Z,49.02
2019-03-18T07:12:03.651Z,49.01
2019-03-18T07:13:05.866Z,49.02
2019-03-18T07:14:08.074Z,49.05
2019-03-18T07:15:10.271Z,49.05
2019-03-18T07:16:12.470Z,49.13
2019-03-18T07:17:14.675Z,49.00
2019-03-18T07:18:18.914Z,49.00
2019-03-18T07:19:20.784Z,49.07
2019-03-18T07:20:22.991Z,49.12
2019-03-18T07:21:25.199Z,49.13
2019-03-18T07:22:27.404Z,49.16
2019-03-18T07:23:29.638Z,49.13
2019-03-18T07:24:31.896Z,49.09
2019-03-18T07:25:34.094Z,49.06
2019-03-18T07:26:36.442Z,49.06
2019-03-18T07:27:38.573Z,49.04
2019-03-18T07:28:40.804Z,48.92
2019-03-18T07:29:43.024Z,49.03
2019-03-18T07:30:45.219Z,49.08
2019-03-18T07:31:47.438Z,49.12
2019-03-18T07:32:49.631Z,49.11
2019-03-18T07:33:51.879Z,49.13
2019-03-18T07:34:54.086Z,49.09
2019-03-18T07:35:56.296Z,49.07
2019-03-18T07:36:58.507Z,49.30
2019-03-18T07:38:00.745Z,49.45
2019-03-18T07:39:03.387Z,49.74
2019-03-18T07:40:05.685Z,49.78
2019-03-18T07:41:08.019Z,50.00
2019-03-18T07:42:10.243Z,50.61
2019-03-18T07:43:12.450Z,50.06
2019-03-18T07:44:14.693Z,50.10
2019-03-18T07:45:16.880Z,50.15
2019-03-18T07:46:19.088Z,49.92
2019-03-18T07:47:21.327Z,50.36
2019-03-18T07:48:30.753Z,50.14
2019-03-18T07:49:27.425Z,49.95
2019-03-18T07:50:29.643Z,50.42
2019-03-18T07:51:31.834Z,50.08
2019-03-18T07:52:34.059Z,50.20
2019-03-18T07:53:36.400Z,50.15
2019-03-18T07:54:38.585Z,50.32
2019-03-18T07:55:40.811Z,50.20
2019-03-18T07:56:43.000Z,50.41
2019-03-18T07:57:45.203Z,50.44
2019-03-18T07:58:47.415Z,50.51
2019-03-18T07:59:49.632Z,50.27
2019-03-18T08:00:51.922Z,50.19
2019-03-18T08:01:54.163Z,50.28
2019-03-18T08:02:56.467Z,50.38
2019-03-18T08:03:58.701Z,50.33
2019-03-18T08:05:00.961Z,50.51
2019-03-18T08:06:03.181Z,50.71
2019-03-18T08:07:05.519Z,50.56
2019-03-18T08:08:07.737Z,50.55
2019-03-18T08:09:13.035Z,50.54
2019-03-18T08:10:15.275Z,50.65
2019-03-18T08:11:17.458Z,50.49
2019-03-18T08:12:19.687Z,50.84
2019-03-18T08:13:21.909Z,50.39
2019-03-18T08:14:24.112Z,50.27
2019-03-18T08:15:27.394Z,50.51
2019-03-18T08:16:29.835Z,50.44
2019-03-18T08:17:32.043Z,50.42
2019-03-18T08:18:43.150Z,50.33
2019-03-18T08:19:38.097Z,50.71
2019-03-18T08:20:40.323Z,50.62
2019-03-18T08:21:42.523Z,50.48
2019-03-18T08:22:44.784Z,50.56
2019-03-18T08:23:46.920Z,50.39
2019-03-18T08:24:49.124Z,50.46
2019-03-18T08:25:51.353Z,50.65
2019-03-18T08:26:53.547Z,50.45
2019-03-18T08:27:55.829Z,51.00
2019-03-18T08:28:58.047Z,50.83
2019-03-18T08:30:00.369Z,50.48
2019-03-18T08:31:02.703Z,50.46
2019-03-18T08:32:04.916Z,50.49
2019-03-18T08:33:07.109Z,50.63
2019-03-18T08:34:09.369Z,50.87
2019-03-18T08:35:11.559Z,50.98
2019-03-18T08:36:13.805Z,50.96
2019-03-18T08:37:16.008Z,51.13
2019-03-18T08:38:18.251Z,51.15
2019-03-18T08:39:20.466Z,51.06
2019-03-18T08:40:22.689Z,50.95
2019-03-18T08:41:24.919Z,51.10
2019-03-18T08:42:27.203Z,50.97
2019-03-18T08:43:29.414Z,51.03
2019-03-18T08:44:31.608Z,50.97
2019-03-18T08:45:33.807Z,51.04
2019-03-18T08:46:36.063Z,50.92
2019-03-18T08:47:38.262Z,50.97
2019-03-18T08:48:40.454Z,50.98
2019-03-18T08:49:42.666Z,51.06
2019-03-18T08:50:44.873Z,50.92
2019-03-18T08:51:47.124Z,50.98
2019-03-18T08:52:50.330Z,50.95
2019-03-18T08:53:52.551Z,50.90
2019-03-18T08:54:54.746Z,50.83
2019-03-18T08:55:56.942Z,50.86
2019-03-18T08:57:02.190Z,50.82
2019-03-18T08:58:04.404Z,50.81
2019-03-18T08:59:06.622Z,50.75
2019-03-18T09:00:08.832Z,50.71
2019-03-18T09:01:11.030Z,50.70
2019-03-18T09:02:13.256Z,50.68
2019-03-18T09:03:15.467Z,50.64
2019-03-18T09:04:18.812Z,50.61
2019-03-18T09:05:20.986Z,50.64
2019-03-18T09:06:23.259Z,50.58
2019-03-18T09:07:25.487Z,50.47
2019-03-18T09:08:27.698Z,50.45
2019-03-18T09:09:29.904Z,50.41
2019-03-18T09:10:32.112Z,50.44
2019-03-18T09:11:34.306Z,50.47
2019-03-18T09:12:36.554Z,50.45
2019-03-18T09:13:38.760Z,50.46
2019-03-18T09:14:40.960Z,50.48
2019-03-18T09:15:43.160Z,50.50
2019-03-18T09:16:45.371Z,50.49
2019-03-18T09:17:47.607Z,50.47
2019-03-18T09:18:49.798Z,50.46
2019-03-18T09:19:51.918Z,50.47
2019-03-18T09:20:54.225Z,50.49
2019-03-18T09:21:56.435Z,50.46
2019-03-18T09:23:01.303Z,50.44
2019-03-18T09:24:02.594Z,50.45
2019-03-18T09:25:04.801Z,50.42
2019-03-18T09:26:06.993Z,50.41
2019-03-18T09:27:09.202Z,50.39
2019-03-18T09:28:11.444Z,50.38
2019-03-18T09:29:13.652Z,50.40
2019-03-18T09:30:15.849Z,50.38
2019-03-18T09:31:18.190Z,50.38
2019-03-18T09:32:20.467Z,50.33
2019-03-18T09:33:24.387Z,50.32
2019-03-18T09:34:26.583Z,50.31
2019-03-18T09:35:28.801Z,50.26
2019-03-18T09:36:31.014Z,50.28
2019-03-18T09:37:33.227Z,50.22
2019-03-18T09:38:35.446Z,50.21
2019-03-18T09:39:40.683Z,50.18
2019-03-18T09:40:42.908Z,50.18
2019-03-18T09:41:46.854Z,50.17
2019-03-18T09:42:49.077Z,50.16
2019-03-18T09:43:51.297Z,50.16
2019-03-18T09:44:53.503Z,50.12
2019-03-18T09:45:55.708Z,50.12
2019-03-18T09:46:57.926Z,50.08
2019-03-18T09:48:00.163Z,50.01
2019-03-18T09:49:02.340Z,50.02
2019-03-18T09:50:04.542Z,50.02
2019-03-18T09:51:09.565Z,50.02
2019-03-18T09:52:10.618Z,50.03
2019-03-18T09:53:12.852Z,49.99
2019-03-18T09:54:15.052Z,49.95
2019-03-18T09:55:17.248Z,49.97
2019-03-18T09:56:19.456Z,50.01
2019-03-18T09:57:26.374Z,50.03
2019-03-18T09:58:25.715Z,50.00
2019-03-18T09:59:27.929Z,50.04
2019-03-18T10:00:30.156Z,50.00
2019-03-18T10:01:32.381Z,50.00
2019-03-18T10:02:34.700Z,49.97
2019-03-18T10:03:36.900Z,49.97
2019-03-18T10:04:42.100Z,49.95
2019-03-18T10:05:44.310Z,49.95
2019-03-18T10:06:48.452Z,49.97
2019-03-18T10:07:50.310Z,49.98
2019-03-18T10:08:52.537Z,49.98
2019-03-18T10:09:57.487Z,49.97
2019-03-18T10:10:59.697Z,49.81
2019-03-18T10:12:01.906Z,49.80
2019-03-18T10:13:04.203Z,49.77
2019-03-18T10:14:06.428Z,49.81
2019-03-18T10:15:08.637Z,49.78
2019-03-18T10:16:10.848Z,49.80
2019-03-18T10:17:13.058Z,49.83
2019-03-18T10:18:15.298Z,49.83
2019-03-18T10:19:17.504Z,49.84
2019-03-18T10:20:20.869Z,49.81
2019-03-18T10:21:23.016Z,49.84
2019-03-18T10:22:25.228Z,49.84
2019-03-18T10:23:27.449Z,49.75
2019-03-18T10:24:29.606Z,49.84
2019-03-18T10:25:31.826Z,49.81
2019-03-18T10:26:34.034Z,49.79
2019-03-18T10:27:37.687Z,49.80
2019-03-18T10:28:41.335Z,49.71
2019-03-18T10:29:43.568Z,49.72
2019-03-18T10:30:45.774Z,49.75
2019-03-18T10:31:48.018Z,49.76
2019-03-18T10:32:50.215Z,49.78
2019-03-18T10:33:52.453Z,49.79
2019-03-18T10:34:56.240Z,49.81
2019-03-18T10:35:58.473Z,49.83
2019-03-18T10:37:00.699Z,49.81
2019-03-18T10:38:02.909Z,49.82
2019-03-18T10:39:05.165Z,49.82
2019-03-18T10:40:07.377Z,49.81
2019-03-18T10:41:09.583Z,49.80
2019-03-18T10:42:11.786Z,49.77
2019-03-18T10:43:14.009Z,49.77
2019-03-18T10:44:16.239Z,49.77
2019-03-18T10:45:18.444Z,49.71
2019-03-18T10:46:20.645Z,49.71
2019-03-18T10:47:22.840Z,49.71
2019-03-18T10:48:25.289Z,49.69
2019-03-18T10:49:27.489Z,49.70
2019-03-18T10:50:29.803Z,49.75
2019-03-18T10:51:32.105Z,49.71
2019-03-18T10:52:34.440Z,50.09
2019-03-18T10:53:36.630Z,50.26
2019-03-18T10:54:38.935Z,50.10
2019-03-18T10:55:41.144Z,49.97
2019-03-18T10:56:43.335Z,50.08
2019-03-18T10:57:46.746Z,50.13
2019-03-18T10:58:48.964Z,50.06
2019-03-18T10:59:51.177Z,50.05
2019-03-18T11:00:53.421Z,50.12
2019-03-18T11:01:55.639Z,50.04
2019-03-18T11:02:57.837Z,50.02
2019-03-18T11:04:00.109Z,50.10
2019-03-18T11:05:02.258Z,50.11
2019-03-18T11:06:04.509Z,50.07
2019-03-18T11:07:06.701Z,50.13
2019-03-18T11:08:08.893Z,50.13
2019-03-18T11:09:14.052Z,50.08
2019-03-18T11:10:16.324Z,50.10
2019-03-18T11:11:18.571Z,50.13
2019-03-18T11:12:20.777Z,50.18
2019-03-18T11:13:22.994Z,50.13
2019-03-18T11:14:25.187Z,50.15
2019-03-18T11:15:27.399Z,50.16
2019-03-18T11:16:31.482Z,50.15
2019-03-18T11:17:33.847Z,50.10
2019-03-18T11:18:36.055Z,50.03
2019-03-18T11:19:38.270Z,50.01
2019-03-18T11:20:40.481Z,49.94
2019-03-18T11:21:42.717Z,49.96
2019-03-18T11:22:44.918Z,49.94
2019-03-18T11:23:47.130Z,49.97
2019-03-18T11:24:49.334Z,49.89
2019-03-18T11:25:51.551Z,49.92
2019-03-18T11:26:55.376Z,49.86
2019-03-18T11:27:57.797Z,49.86
2019-03-18T11:29:00.016Z,49.83
2019-03-18T11:30:02.237Z,49.80
2019-03-18T11:31:04.436Z,49.82
2019-03-18T11:32:06.679Z,49.76
2019-03-18T11:33:08.884Z,49.69
2019-03-18T11:34:11.081Z,49.73
2019-03-18T11:35:13.287Z,49.69
2019-03-18T11:36:15.591Z,49.73
2019-03-18T11:37:17.770Z,49.72
2019-03-18T11:38:19.980Z,49.74
2019-03-18T11:39:22.195Z,49.78
2019-03-18T11:40:24.419Z,49.74
2019-03-18T11:41:26.652Z,49.73
2019-03-18T11:42:28.869Z,49.70
2019-03-18T11:43:34.181Z,49.71
2019-03-18T11:44:36.405Z,49.65
2019-03-18T11:45:38.616Z,49.64
2019-03-18T11:46:40.842Z,49.65
2019-03-18T11:47:43.119Z,49.64
2019-03-18T11:48:45.266Z,49.62
2019-03-18T11:49:47.492Z,49.68
2019-03-18T11:50:49.775Z,49.71
2019-03-18T11:51:51.918Z,49.71
2019-03-18T11:52:54.160Z,49.76
2019-03-18T11:53:56.362Z,49.67
2019-03-18T11:54:58.587Z,49.69
2019-03-18T11:56:00.817Z,49.66
2019-03-18T11:57:03.022Z,49.69
2019-03-18T11:58:05.234Z,49.68
2019-03-18T11:59:07.433Z,49.69
2019-03-18T12:00:09.864Z,49.65
2019-03-18T12:01:12.068Z,49.68
2019-03-18T12:02:26.771Z,49.70
2019-03-18T12:03:18.303Z,49.76
2019-03-18T12:04:20.538Z,49.98
2019-03-18T12:05:22.758Z,49.99
2019-03-18T12:06:24.986Z,50.78
2019-03-18T12:07:27.197Z,50.28
2019-03-18T12:08:29.399Z,50.45
2019-03-18T12:09:31.645Z,50.32
2019-03-18T12:10:33.843Z,50.46
2019-03-18T12:11:36.137Z,50.75
2019-03-18T12:12:38.357Z,50.80
2019-03-18T12:13:40.712Z,50.44
2019-03-18T12:14:43.091Z,50.31
2019-03-18T12:15:45.308Z,50.38
2019-03-18T12:16:47.531Z,50.55
2019-03-18T12:17:49.743Z,50.36
2019-03-18T12:18:51.958Z,50.47
2019-03-18T12:19:54.198Z,50.43
2019-03-18T12:20:56.396Z,50.51
2019-03-18T12:21:58.723Z,50.62
2019-03-18T12:23:00.958Z,50.55
2019-03-18T12:24:03.171Z,50.47
2019-03-18T12:25:05.465Z,50.49
2019-03-18T12:26:09.238Z,50.58
2019-03-18T12:27:12.777Z,50.59
2019-03-18T12:28:16.840Z,50.51
2019-03-18T12:29:20.406Z,50.44
2019-03-18T12:30:24.425Z,50.45
2019-03-18T12:31:34.985Z,50.46
2019-03-18T12:32:50.135Z,50.49
2019-03-18T12:33:57.643Z,50.39
2019-03-18T12:35:08.416Z,50.39
2019-03-18T12:36:19.206Z,50.39
2019-03-18T12:37:29.832Z,50.35
2019-03-18T12:38:40.409Z,50.35
2019-03-18T12:39:51.487Z,50.36
2019-03-18T12:40:55.696Z,50.34
2019-03-18T12:41:59.380Z,50.33
2019-03-18T12:43:04.611Z,50.33
2019-03-18T12:44:08.057Z,50.33
2019-03-18T12:45:11.919Z,50.34
2019-03-18T12:46:16.260Z,50.32
2019-03-18T12:47:18.492Z,50.32
2019-03-18T12:48:21.254Z,50.30
2019-03-18T12:49:23.971Z,50.25
2019-03-18T12:50:55.244Z,50.22
2019-03-18T12:51:30.595Z,50.20
2019-03-18T12:52:32.835Z,50.21
2019-03-18T12:53:35.154Z,50.19
2019-03-18T12:54:37.363Z,50.17
2019-03-18T12:55:41.282Z,50.16
2019-03-18T12:56:43.514Z,50.10
2019-03-18T12:57:45.738Z,50.11
2019-03-18T12:58:47.963Z,50.09
2019-03-18T12:59:50.307Z,50.06
2019-03-18T13:00:52.709Z,50.01
2019-03-18T13:01:55.156Z,50.04
2019-03-18T13:02:57.572Z,49.98
2019-03-18T13:03:59.885Z,49.97
2019-03-18T13:05:02.111Z,50.00
2019-03-18T13:06:04.414Z,49.95
2019-03-18T13:07:06.624Z,49.86
2019-03-18T13:08:09.152Z,49.89
2019-03-18T13:09:11.463Z,49.89
2019-03-18T13:10:13.698Z,49.83
2019-03-18T13:11:16.002Z,49.85
2019-03-18T13:12:19.304Z,49.91
2019-03-18T13:13:21.521Z,49.90
2019-03-18T13:14:23.731Z,49.81
2019-03-18T13:15:26.256Z,49.78
2019-03-18T13:16:28.654Z,49.70
2019-03-18T13:17:31.013Z,49.71
2019-03-18T13:18:33.344Z,49.68
2019-03-18T13:19:35.557Z,49.71
2019-03-18T13:20:39.052Z,49.55
2019-03-18T13:21:41.272Z,49.61
2019-03-18T13:22:43.483Z,49.71
2019-03-18T13:23:45.893Z,49.72
2019-03-18T13:24:48.126Z,49.65
2019-03-18T13:25:50.339Z,49.74
2019-03-18T13:26:52.542Z,49.69